Airfield :
LOGIN :

Register | Disclaimer

   EN    FR    IT 

 










Legend :    VFR   Marginal VFR   IFR   Intensive IFR   Very Intensive IFR
Visi :
Ceiling :
>= 8 km
>= 3000ft
5 to 8 km
1000 to 3000 ft
1500m to 5 km
500 to 1000 ft
800 to 1500m
200 to 500 ft
< 800m
< 200 ft
Symbols :   Thunderstorms  Fog  Heavy snow  Heavy precipitations  Wind > 20 kt
SIGMETs :     Misc.  Thunderstorms  Icing  Turbulence  Mountain Waves  Volcanic Ashes







- Airport Elevation : 121 ft
- IATA code : HUY
- Download approach charts


EGNJ - Humberside

CURRENT METAR :
  • 160150Z AUTO 34003KT 7000 -RA SCT002/// BKN007/// OVC011/// 12/12 Q1022 RERA

EXPIRED METARs :
  • 160120Z AUTO 34003KT 5000 -DZ BKN001/// OVC011/// 12/12 Q1022 RERA
  • 160050Z AUTO 27001KT 3500 DZ SCT002/// BKN008/// BKN012/// 12/12 Q1022
  • 160020Z AUTO 22001KT 6000 -RA FEW006/// BKN009/// OVC019/// 12/12 Q1022
  • 152350Z AUTO 22001KT 6000 -RA SCT011/// BKN025/// BKN033/// 12/12 Q1022 RERA
  • 152320Z AUTO 19001KT 6000 -RA SCT011/// OVC017/// 12/12 Q1023 RERA
  • 152250Z AUTO 00000KT 5000 RA FEW002/// BKN012/// OVC021/// 12/12 Q1023

TAF AMD TAF EGNJ
Valid from the 16 at 01:00 until the 16 at 09:00 UTC


160117Z 1601/1609 VRB03KT 7000 SCT012 BKN020
TEMPO 1601/1603 3000 +RADZ BKN001
BECMG 1603/1606 9999
ATIS : +44 1652 682 020
No reported NOTAMs for that airfield.



MET'MAP, your aeronautical weather chart ! - Copyright ORBIFLY December 2007 - Disclaimer

ORBIFLY MET'MAP TEAM :

Programming & Development : Alexandra Zaïnal
Concept & Development : Baudouin d'Aumeries
Co-Development & Prog : Marc-Olivier Méhu
Technical & hardware support : Manuel Goepfert

Contact : metmap@orbifly.com




SOURCES & CREDITS :

   NOAA